Time;durP1;ratioP1;P1;durP2;ratioP2;P2;SDS_P1;SDS_P2;PMS_P1;PMS_P2;Temp;Humidity;BMP_temperature;BMP_pressure;BME280_temperature;BME280_humidity;BME280_pressure;Samples;Min_cycle;Max_cycle;Signal;HPM_P1;HPM_P2
2023/09/28 00:02:54;;;;;;;4.45;2.55;;;;;;;-146.27;63.87;80434.13;5021318;28;20080;-68
2023/09/28 00:05:20;;;;;;;4.70;2.85;;;;;;;-146.27;64.27;80472.25;5017595;28;20057;-68
2023/09/28 00:07:47;;;;;;;7.93;2.70;;;;;;;-146.27;64.51;80434.13;5025309;28;20044;-69
2023/09/28 00:10:15;;;;;;;7.72;2.95;;;;;;;-146.27;64.22;80420.06;5028779;28;20029;-68
2023/09/28 00:12:48;;;;;;;4.13;2.75;;;;;;;-146.27;64.46;80454.19;5013587;28;20025;-69
2023/09/28 00:15:15;;;;;;;8.65;3.03;;;;;;;-146.27;64.82;80460.22;5025711;28;20048;-69
2023/09/28 00:17:41;;;;;;;4.45;2.72;;;;;;;-146.27;65.55;80492.34;5023317;28;20062;-69
2023/09/28 00:20:17;;;;;;;7.00;2.95;;;;;;;-146.27;65.23;80424.06;5024605;28;20053;-70
2023/09/28 00:22:54;;;;;;;4.93;3.28;;;;;;;-146.27;65.91;80506.41;5029465;28;20098;-69
2023/09/28 00:25:21;;;;;;;5.10;2.85;;;;;;;-146.27;65.31;80436.13;5022145;28;20021;-69
2023/09/28 00:27:50;;;;;;;5.25;3.08;;;;;;;-146.27;66.38;80468.25;5017467;28;20363;-69
2023/09/28 00:30:18;;;;;;;7.15;2.92;;;;;;;-146.27;66.67;80496.34;5022314;28;20478;-70
2023/09/28 00:32:47;;;;;;;5.60;2.92;;;;;;;-146.27;66.35;80444.16;5021103;28;20550;-68
2023/09/28 00:35:14;;;;;;;7.00;3.13;;;;;;;-146.27;67.26;80560.59;5025214;28;20029;-69
2023/09/28 00:37:41;;;;;;;6.22;3.10;;;;;;;-146.27;66.64;80508.41;5015109;28;20069;-69
2023/09/28 00:40:18;;;;;;;8.25;3.75;;;;;;;-146.27;67.03;80502.38;5028120;28;20025;-69
2023/09/28 00:42:45;;;;;;;5.90;3.22;;;;;;;-146.27;66.66;80468.25;5023005;28;20061;-69
2023/09/28 00:45:10;;;;;;;5.65;3.08;;;;;;;-146.27;66.25;80426.09;5028648;28;20033;-68
2023/09/28 00:47:40;;;;;;;13.60;3.67;;;;;;;-146.27;67.50;80502.38;5029075;28;20030;-69
2023/09/28 00:50:15;;;;;;;5.65;3.22;;;;;;;-146.27;67.50;80520.44;5022171;28;20104;-69
2023/09/28 00:52:46;;;;;;;12.85;3.50;;;;;;;-146.27;67.29;80512.41;5027442;28;20087;-69
2023/09/28 00:55:15;;;;;;;7.90;3.95;;;;;;;-146.27;68.58;80588.72;5030705;28;20031;-71
2023/09/28 00:57:42;;;;;;;4.82;3.28;;;;;;;-146.27;68.04;80532.50;5025571;28;20055;-71
2023/09/28 01:02:51;;;;;;;6.93;3.35;;;;;;;-146.27;68.66;80576.66;5026288;28;20036;-69
2023/09/28 01:05:31;;;;;;;5.40;3.40;;;;;;;-146.27;68.94;80620.84;5039734;28;20041;-70
2023/09/28 01:08:14;;;;;;;7.32;3.50;;;;;;;-146.27;68.88;80570.66;5030891;28;20029;-68
2023/09/28 01:10:40;;;;;;;8.98;3.85;;;;;;;-146.27;70.29;80693.13;5014247;28;20033;-68
2023/09/28 01:13:11;;;;;;;6.43;3.47;;;;;;;-146.27;69.85;80640.94;5023852;28;20034;-70
2023/09/28 01:15:40;;;;;;;7.97;3.58;;;;;;;-146.27;70.50;80628.88;5022620;28;20022;-69
2023/09/28 01:18:10;;;;;;;7.25;3.70;;;;;;;-146.27;70.12;80636.91;5018499;28;20018;-68
2023/09/28 01:20:37;;;;;;;7.88;4.70;;;;;;;-146.27;71.42;80697.16;5026495;28;20393;-68
2023/09/28 01:23:04;;;;;;;6.93;3.50;;;;;;;-146.27;70.40;80600.75;5023037;28;20026;-69
2023/09/28 01:25:33;;;;;;;7.72;3.30;;;;;;;-146.27;70.40;80652.97;5028177;28;20041;-69
2023/09/28 01:28:00;;;;;;;8.85;3.58;;;;;;;-146.27;69.79;80536.50;5025490;28;20496;-69
2023/09/28 01:30:26;;;;;;;9.43;4.00;;;;;;;-146.27;70.58;80640.94;5024338;28;20025;-69
2023/09/28 01:32:52;;;;;;;5.70;3.58;;;;;;;-146.27;70.56;80661.00;5024775;28;20064;-70
2023/09/28 01:35:18;;;;;;;15.50;3.65;;;;;;;-146.27;70.17;80661.00;5021478;28;20492;-69
2023/09/28 01:38:38;;;;;;;14.80;3.85;;;;;;;-146.27;71.84;80747.34;5022339;28;20425;-67
2023/09/28 01:41:04;;;;;;;15.05;3.70;;;;;;;-146.27;72.42;80773.44;5025207;28;20037;-68
2023/09/28 01:43:29;;;;;;;16.20;3.65;;;;;;;-146.27;71.61;80709.19;5027515;28;20516;-68
2023/09/28 01:45:55;;;;;;;8.30;3.67;;;;;;;-146.27;72.08;80765.41;5025285;28;20501;-68
2023/09/28 01:48:21;;;;;;;13.25;3.17;;;;;;;-146.27;72.24;80827.66;5029393;28;20021;-67
2023/09/28 01:50:46;;;;;;;14.10;3.95;;;;;;;-146.27;72.68;80817.63;5013782;28;20025;-68
2023/09/28 01:53:12;;;;;;;7.38;3.00;;;;;;;-146.27;71.08;80685.09;5020023;28;20029;-70
2023/09/28 01:55:37;;;;;;;11.10;3.03;;;;;;;-146.27;72.23;80841.72;5015797;28;20505;-69
2023/09/28 01:58:07;;;;;;;10.18;3.78;;;;;;;-146.27;71.02;80735.31;5019958;28;20041;-68
2023/09/28 02:00:34;;;;;;;6.88;3.05;;;;;;;-146.27;70.77;80717.22;5019043;28;20028;-68
2023/09/28 02:03:02;;;;;;;12.25;3.05;;;;;;;-146.27;70.62;80685.09;5020604;28;20389;-68
2023/09/28 02:05:32;;;;;;;10.77;3.40;;;;;;;-146.27;70.52;80745.34;5020601;28;20033;-69
2023/09/28 02:07:59;;;;;;;8.32;3.05;;;;;;;-146.27;70.45;80783.50;5021063;28;20036;-72
2023/09/28 02:10:24;;;;;;;14.55;3.38;;;;;;;-146.27;69.86;80795.53;5019758;28;20018;-69
2023/09/28 02:12:50;;;;;;;10.57;2.90;;;;;;;-146.27;70.11;80805.56;5025154;28;20448;-70
2023/09/28 02:15:16;;;;;;;6.50;2.80;;;;;;;-146.27;69.18;80789.50;5023477;28;20041;-69
2023/09/28 02:17:45;;;;;;;10.60;2.90;;;;;;;-146.27;68.59;80711.19;5020723;28;20084;-72
2023/09/28 02:20:15;;;;;;;12.75;2.55;;;;;;;-146.27;69.39;80938.09;5021191;28;20021;-71
2023/09/28 02:22:44;;;;;;;8.25;2.40;;;;;;;-146.27;69.25;80889.91;5020383;28;20060;-72
2023/09/28 02:25:30;;;;;;;7.85;2.70;;;;;;;-146.27;67.45;80785.50;5021601;28;20025;-73
2023/09/28 02:27:55;;;;;;;11.10;2.50;;;;;;;-146.27;68.38;81024.47;5015703;28;20409;-72
2023/09/28 02:30:22;;;;;;;10.48;2.47;;;;;;;-146.27;66.84;80861.81;5016091;28;20030;-72
2023/09/28 02:32:55;;;;;;;8.95;2.10;;;;;;;-146.27;65.63;80823.66;5026016;28;20048;-73
2023/09/28 02:35:21;;;;;;;11.68;1.95;;;;;;;-146.27;64.75;80873.84;5026466;28;20025;-73
2023/09/28 02:37:48;;;;;;;11.95;2.20;;;;;;;-146.27;64.23;81010.41;5030697;28;20064;-73
2023/09/28 02:40:15;;;;;;;13.38;1.88;;;;;;;-146.27;63.66;80920.03;5025792;28;22093;-72
2023/09/28 02:42:44;;;;;;;9.48;1.65;;;;;;;-146.27;63.06;80970.25;5026950;28;20692;-72
2023/09/28 02:45:13;;;;;;;12.95;2.15;;;;;;;-146.27;63.84;80978.28;5028686;28;20040;-72
2023/09/28 02:47:40;;;;;;;8.57;1.60;;;;;;;-146.27;62.98;80903.97;5025617;28;20033;-71
2023/09/28 02:50:09;;;;;;;11.00;2.15;;;;;;;-146.27;63.76;80960.19;5025452;28;20025;-72
2023/09/28 02:52:38;;;;;;;17.77;2.65;;;;;;;-146.27;63.06;80901.97;5027658;28;20062;-72
2023/09/28 02:55:07;;;;;;;11.20;2.03;;;;;;;-146.27;64.15;81026.47;5023751;28;20033;-72
2023/09/28 02:57:33;;;;;;;12.15;2.53;;;;;;;-146.27;64.28;80982.28;5022236;28;20398;-73
2023/09/28 02:59:58;;;;;;;12.07;2.08;;;;;;;-146.27;65.22;81034.50;5026896;28;20026;-74
2023/09/28 03:02:24;;;;;;;17.10;2.38;;;;;;;-146.27;64.80;80950.16;5027548;28;20074;-74
2023/09/28 03:04:49;;;;;;;13.13;2.30;;;;;;;-146.27;65.56;81020.44;5031528;28;20036;-72
2023/09/28 03:07:15;;;;;;;22.95;3.03;;;;;;;-146.27;66.77;81094.75;5022660;28;20390;-73
2023/09/28 03:09:40;;;;;;;20.88;3.08;;;;;;;-146.27;68.30;81191.13;5022214;28;20072;-72
2023/09/28 03:12:07;;;;;;;21.40;3.55;;;;;;;-146.27;67.69;81146.97;5030628;28;20029;-73
2023/09/28 03:14:32;;;;;;;26.65;3.90;;;;;;;-146.27;69.30;81243.34;5025386;28;20049;-73
2023/09/28 03:16:58;;;;;;;28.67;5.13;;;;;;;-146.27;67.87;81088.72;5021805;28;20498;-73
2023/09/28 03:19:24;;;;;;;24.73;3.60;;;;;;;-146.27;68.42;81064.63;5028876;28;20162;-72
2023/09/28 03:21:49;;;;;;;27.55;3.88;;;;;;;-146.27;69.43;81155.00;5026024;28;20106;-72
2023/09/28 03:24:15;;;;;;;28.35;4.13;;;;;;;-146.27;70.77;81245.34;5031499;28;20060;-72
2023/09/28 03:26:40;;;;;;;24.80;3.42;;;;;;;-146.27;70.25;81165.03;5030452;28;20040;-72
2023/09/28 03:29:06;;;;;;;22.05;3.78;;;;;;;-146.27;69.76;81130.88;5026597;28;20026;-72
2023/09/28 03:31:32;;;;;;;23.10;3.53;;;;;;;-146.27;69.90;81163.03;5023725;28;20033;-72
2023/09/28 03:33:58;;;;;;;29.63;4.47;;;;;;;-146.27;69.52;81116.84;5031041;28;20025;-73
2023/09/28 03:36:24;;;;;;;23.85;3.42;;;;;;;-146.27;69.65;81181.09;5023005;28;20149;-72
2023/09/28 03:38:50;;;;;;;28.10;4.63;;;;;;;-146.27;70.15;81185.13;5026373;28;20026;-73
2023/09/28 03:41:17;;;;;;;26.02;3.80;;;;;;;-146.27;69.73;81157.00;5028197;28;20502;-72
2023/09/28 03:43:46;;;;;;;27.00;4.22;;;;;;;-146.27;69.79;81169.03;5025920;28;20030;-72
2023/09/28 03:46:12;;;;;;;28.70;4.07;;;;;;;-146.27;69.58;81088.72;5019962;28;20033;-72
2023/09/28 03:48:37;;;;;;;27.13;3.78;;;;;;;-146.27;70.14;81167.03;5029873;28;20028;-74
2023/09/28 03:51:03;;;;;;;32.25;4.63;;;;;;;-146.27;70.42;81157.00;5029217;28;20505;-73
2023/09/28 03:53:31;;;;;;;33.08;4.13;;;;;;;-146.27;70.12;81130.88;5015257;28;20117;-72
2023/09/28 03:55:57;;;;;;;25.65;4.32;;;;;;;-146.27;68.86;81026.47;5028883;28;20059;-72
2023/09/28 03:58:22;;;;;;;36.50;4.55;;;;;;;-146.27;69.76;81171.06;5017501;28;20502;-74
2023/09/28 04:00:48;;;;;;;29.67;4.18;;;;;;;-146.27;69.88;81114.81;5024177;28;20025;-74
2023/09/28 04:03:14;;;;;;;30.15;4.60;;;;;;;-146.27;68.67;81058.59;5020625;28;20389;-74
2023/09/28 04:05:39;;;;;;;23.85;4.30;;;;;;;-146.27;69.28;81110.81;5025673;28;20508;-74
2023/09/28 04:08:06;;;;;;;25.17;4.60;;;;;;;-146.27;69.48;81102.78;5025099;28;20896;-73
2023/09/28 04:10:33;;;;;;;23.98;3.13;;;;;;;-146.27;69.28;81102.78;5028926;28;20021;-73
2023/09/28 04:13:00;;;;;;;26.70;4.22;;;;;;;-146.27;69.10;81046.53;5030038;28;20112;-72
2023/09/28 04:15:26;;;;;;;24.55;3.35;;;;;;;-146.27;69.42;81098.75;5025023;28;20037;-72
2023/09/28 04:17:51;;;;;;;27.08;3.65;;;;;;;-146.27;69.77;81134.91;5024733;28;20048;-73
2023/09/28 04:20:17;;;;;;;23.52;3.78;;;;;;;-146.27;70.39;81132.91;5025560;28;20037;-74
2023/09/28 04:22:42;;;;;;;23.88;3.78;;;;;;;-146.27;70.10;81122.84;5028700;28;20392;-73
2023/09/28 04:25:09;;;;;;;44.45;6.07;;;;;;;-146.27;70.58;81142.94;5027017;28;20025;-73
2023/09/28 04:27:35;;;;;;;24.85;3.25;;;;;;;-146.27;70.22;81130.88;5026619;28;20064;-73
2023/09/28 04:30:03;;;;;;;21.52;3.67;;;;;;;-146.27;70.48;81163.03;5029115;28;20040;-73
2023/09/28 04:32:29;;;;;;;31.95;5.05;;;;;;;-146.27;71.10;81243.34;5021502;28;20033;-73
2023/09/28 04:34:57;;;;;;;32.40;3.65;;;;;;;-146.27;70.61;81201.19;5029001;28;20029;-73
2023/09/28 04:37:23;;;;;;;32.08;4.43;;;;;;;-146.27;71.32;81265.44;5024992;28;20474;-73
2023/09/28 04:39:49;;;;;;;38.75;5.30;;;;;;;-146.27;71.07;81251.38;5023762;28;20394;-73
2023/09/28 04:42:14;;;;;;;39.10;4.72;;;;;;;-146.27;71.50;81319.66;5018727;28;20025;-73
2023/09/28 04:44:43;;;;;;;33.65;4.55;;;;;;;-146.27;71.67;81313.63;5023541;28;20022;-69
2023/09/28 04:47:10;;;;;;;25.75;4.35;;;;;;;-146.27;71.19;81235.31;5022006;28;20604;-69
2023/09/28 04:49:35;;;;;;;31.38;4.35;;;;;;;-146.27;70.56;81146.97;5021742;28;20068;-69
2023/09/28 04:52:00;;;;;;;28.08;4.88;;;;;;;-146.27;70.87;81193.16;5022895;28;20026;-70
2023/09/28 04:54:26;;;;;;;28.85;4.10;;;;;;;-146.27;72.35;81343.75;5022820;28;20496;-70
2023/09/28 04:56:51;;;;;;;25.17;4.30;;;;;;;-146.27;71.93;81275.47;5031814;28;20033;-70
2023/09/28 04:59:17;;;;;;;31.67;4.13;;;;;;;-146.27;72.30;81293.56;5025840;28;20104;-69
2023/09/28 05:01:43;;;;;;;26.20;4.25;;;;;;;-146.27;72.47;81355.81;5020793;28;20056;-71
2023/09/28 05:04:11;;;;;;;34.42;4.53;;;;;;;-146.27;72.82;81365.84;5025007;28;20401;-69
2023/09/28 05:06:38;;;;;;;22.88;3.92;;;;;;;-146.27;72.40;81327.69;5018049;28;20030;-69
2023/09/28 05:09:04;;;;;;;20.83;3.33;;;;;;;-146.27;71.92;81291.53;5016334;28;20028;-69
2023/09/28 05:11:29;;;;;;;28.23;3.95;;;;;;;-146.27;71.67;81291.53;5022886;28;20112;-68
2023/09/28 05:13:55;;;;;;;31.50;4.07;;;;;;;-146.27;72.17;81365.84;5023049;28;20084;-69
2023/09/28 05:16:20;;;;;;;34.13;3.83;;;;;;;-146.27;72.80;81406.03;5016549;28;20022;-69
2023/09/28 05:18:46;;;;;;;31.10;3.85;;;;;;;-146.27;72.77;81393.97;5015906;28;20037;-71
2023/09/28 05:21:12;;;;;;;31.10;5.55;;;;;;;-146.27;72.24;81335.72;5027815;28;20028;-69
2023/09/28 05:23:38;;;;;;;32.92;4.43;;;;;;;-146.27;71.67;81303.59;5027942;28;20087;-68
2023/09/28 05:26:04;;;;;;;30.70;4.60;;;;;;;-146.27;71.89;81367.88;5018828;28;20113;-69
2023/09/28 05:28:29;;;;;;;23.00;3.33;;;;;;;-146.27;71.58;81327.69;5026722;28;20083;-67
2023/09/28 05:30:55;;;;;;;35.85;4.97;;;;;;;-146.27;72.23;81387.94;5018275;28;20084;-67
2023/09/28 05:33:20;;;;;;;23.48;3.13;;;;;;;-146.27;72.13;81385.94;5018876;28;20076;-71
2023/09/28 05:35:46;;;;;;;25.40;4.63;;;;;;;-146.27;72.38;81343.75;5020305;28;20036;-70
2023/09/28 05:38:11;;;;;;;32.50;5.15;;;;;;;-146.27;71.32;81307.63;5015667;28;20030;-70
2023/09/28 05:40:37;;;;;;;24.83;4.00;;;;;;;-146.27;72.36;81430.13;5014821;28;20037;-70
2023/09/28 05:43:02;;;;;;;27.25;4.35;;;;;;;-146.27;72.16;81355.81;5018403;28;20190;-71
2023/09/28 05:45:28;;;;;;;35.38;5.65;;;;;;;-146.27;71.93;81393.97;5022373;28;20530;-71
2023/09/28 05:47:53;;;;;;;23.95;3.97;;;;;;;-146.27;72.07;81404.00;5015993;28;20034;-71
2023/09/28 05:50:18;;;;;;;22.90;3.88;;;;;;;-146.27;72.49;81496.41;5027940;28;20057;-70
2023/09/28 05:52:45;;;;;;;37.03;4.25;;;;;;;-146.27;72.98;81496.41;5021533;28;20026;-71
2023/09/28 05:55:10;;;;;;;26.35;3.90;;;;;;;-146.27;72.13;81404.00;5027882;28;20029;-70
2023/09/28 05:57:36;;;;;;;29.85;3.88;;;;;;;-146.27;71.63;81408.03;5028020;28;20036;-71
2023/09/28 06:00:07;;;;;;;31.10;4.85;;;;;;;-146.27;72.49;81474.31;5016980;28;20040;-71
2023/09/28 06:02:32;;;;;;;37.65;4.18;;;;;;;-146.27;72.02;81460.25;5027956;28;20037;-72
2023/09/28 06:04:58;;;;;;;28.33;4.30;;;;;;;-146.27;71.97;81436.16;5022599;28;20072;-72
2023/09/28 06:07:24;;;;;;;27.95;5.03;;;;;;;-146.27;71.04;81361.84;5019821;28;20425;-72
2023/09/28 06:09:50;;;;;;;24.70;4.57;;;;;;;-146.27;70.79;81363.84;5020666;28;20136;-72
2023/09/28 06:12:16;;;;;;;33.30;4.93;;;;;;;-146.27;70.87;81349.78;5021813;28;20044;-74
2023/09/28 06:14:42;;;;;;;30.42;3.80;;;;;;;-146.27;71.69;81418.06;5031069;28;20049;-72
2023/09/28 06:17:07;;;;;;;29.20;5.05;;;;;;;-146.27;71.58;81410.03;5016021;28;20712;-72
2023/09/28 06:19:33;;;;;;;31.63;4.18;;;;;;;-146.27;71.75;81408.03;5023733;28;20025;-72
2023/09/28 06:21:59;;;;;;;31.23;4.78;;;;;;;-146.27;71.79;81440.16;5033104;28;20061;-70
2023/09/28 06:24:25;;;;;;;31.48;4.72;;;;;;;-146.27;72.67;81532.53;5025572;28;20057;-71
2023/09/28 06:26:51;;;;;;;26.27;3.92;;;;;;;-146.27;71.80;81416.06;5021195;28;20064;-69
2023/09/28 06:29:16;;;;;;;28.58;4.57;;;;;;;-146.27;71.23;81347.78;5031631;28;20053;-71
2023/09/28 06:31:42;;;;;;;31.65;4.65;;;;;;;-146.27;71.98;81428.09;5019327;28;20041;-71
2023/09/28 06:34:08;;;;;;;30.85;4.47;;;;;;;-146.27;71.53;81355.81;5026216;28;20107;-70
2023/09/28 06:36:34;;;;;;;30.30;4.32;;;;;;;-146.27;71.09;81331.72;5029036;28;20079;-71
2023/09/28 06:39:00;;;;;;;32.80;5.20;;;;;;;-146.27;71.76;81404.00;5026255;28;20025;-71
2023/09/28 06:41:25;;;;;;;28.70;5.20;;;;;;;-146.27;71.53;81408.03;5025504;28;20033;-71
2023/09/28 06:43:51;;;;;;;37.13;4.30;;;;;;;-146.27;71.51;81391.97;5031678;28;20501;-70
2023/09/28 06:46:17;;;;;;;27.50;4.75;;;;;;;-146.27;72.09;81412.03;5033720;28;20049;-70
2023/09/28 06:48:42;;;;;;;25.80;4.68;;;;;;;-146.27;71.05;81311.63;5033268;28;20024;-71
2023/09/28 06:51:08;;;;;;;24.55;4.68;;;;;;;-146.27;72.05;81402.00;5033094;28;20029;-71
2023/09/28 06:53:33;;;;;;;26.55;3.65;;;;;;;-146.27;71.64;81369.88;5033452;28;20504;-70
2023/09/28 06:56:01;;;;;;;25.20;4.20;;;;;;;-146.27;71.77;81400.00;5033478;28;20047;-70
2023/09/28 06:58:26;;;;;;;31.83;4.00;;;;;;;-146.27;70.94;81357.81;5033403;28;20030;-69
2023/09/28 07:00:53;;;;;;;27.20;3.88;;;;;;;-146.27;71.15;81285.53;5033596;28;20033;-72
2023/09/28 07:03:19;;;;;;;27.95;3.90;;;;;;;-146.27;71.45;81389.94;5033590;28;20728;-70
2023/09/28 07:05:45;;;;;;;21.95;3.45;;;;;;;-146.27;70.67;81257.41;5032920;28;20028;-70
2023/09/28 07:08:10;;;;;;;37.90;4.35;;;;;;;-146.27;70.89;81335.72;5033309;28;20393;-69
2023/09/28 07:10:36;;;;;;;32.05;4.45;;;;;;;-146.27;71.77;81355.81;5030375;28;20080;-70
2023/09/28 07:13:05;;;;;;;26.65;3.58;;;;;;;-146.27;71.44;81337.75;5031678;28;20029;-71
2023/09/28 07:15:31;;;;;;;32.65;4.72;;;;;;;-146.27;71.51;81343.75;5020969;28;20470;-72
2023/09/28 07:17:57;;;;;;;34.95;4.47;;;;;;;-146.27;70.65;81263.44;5013194;28;20025;-70
2023/09/28 07:20:23;;;;;;;21.02;3.92;;;;;;;-146.27;72.16;81414.06;5025390;28;20382;-71
2023/09/28 07:22:49;;;;;;;27.88;4.47;;;;;;;-146.27;72.37;81406.03;5031757;28;20456;-71
2023/09/28 07:25:15;;;;;;;25.02;4.25;;;;;;;-146.27;72.16;81420.06;5032226;28;20029;-69
2023/09/28 07:27:42;;;;;;;34.80;4.53;;;;;;;-146.27;71.20;81339.75;5030490;28;20108;-72
2023/09/28 07:30:08;;;;;;;30.30;4.07;;;;;;;-146.27;71.22;81315.66;5022043;28;20064;-71
2023/09/28 07:32:34;;;;;;;34.97;3.97;;;;;;;-146.27;71.39;81325.69;5028077;28;20064;-71
2023/09/28 07:35:00;;;;;;;34.58;4.43;;;;;;;-146.27;71.09;81293.56;5032917;28;20045;-71
2023/09/28 07:37:27;;;;;;;28.40;3.53;;;;;;;-146.27;71.15;81285.53;5031776;28;20152;-70
2023/09/28 07:39:53;;;;;;;38.92;5.15;;;;;;;-146.27;70.33;81243.34;5020386;28;20087;-70
2023/09/28 07:42:19;;;;;;;31.17;4.55;;;;;;;-146.27;69.86;81221.25;5030643;28;20037;-70
2023/09/28 07:44:49;;;;;;;23.77;3.15;;;;;;;-146.27;70.40;81247.38;5030555;28;20025;-71
2023/09/28 07:47:15;;;;;;;28.33;4.72;;;;;;;-146.27;69.91;81195.16;5033393;28;20127;-70
2023/09/28 07:49:40;;;;;;;30.65;5.85;;;;;;;-146.27;71.94;81371.88;5027783;28;20454;-70
2023/09/28 07:52:08;;;;;;;30.73;3.95;;;;;;;-146.27;70.90;81301.59;5031174;28;20037;-71
2023/09/28 07:54:35;;;;;;;18.85;3.22;;;;;;;-146.27;71.99;81404.00;5030997;28;20397;-69
2023/09/28 07:57:03;;;;;;;29.25;4.43;;;;;;;-146.27;70.67;81295.56;5031075;28;20367;-71
2023/09/28 07:59:31;;;;;;;22.20;4.47;;;;;;;-146.27;69.66;81150.97;5029754;28;20026;-70
2023/09/28 08:01:56;;;;;;;23.27;3.60;;;;;;;-146.27;70.34;81247.38;5028767;28;20104;-72
2023/09/28 08:04:23;;;;;;;23.38;4.25;;;;;;;-146.27;70.48;81223.25;5031192;28;20120;-70
2023/09/28 08:06:48;;;;;;;22.65;4.18;;;;;;;-146.27;70.57;81195.16;5041941;28;20028;-69
2023/09/28 08:09:14;;;;;;;36.38;4.13;;;;;;;-146.27;70.06;81199.16;5033086;28;20370;-69
2023/09/28 08:11:42;;;;;;;31.58;4.18;;;;;;;-146.27;70.28;81161.00;5027597;28;20029;-69
2023/09/28 08:14:12;;;;;;;30.85;3.70;;;;;;;-146.27;69.43;81106.78;5041664;28;20056;-69
2023/09/28 08:16:38;;;;;;;25.27;4.03;;;;;;;-146.27;69.11;81104.78;5027250;28;20097;-69
2023/09/28 08:19:05;;;;;;;25.70;4.45;;;;;;;-146.27;69.43;81090.72;5034252;28;20033;-71
2023/09/28 08:21:30;;;;;;;26.13;4.32;;;;;;;-146.27;69.26;81118.84;5042785;28;20028;-70
2023/09/28 08:23:56;;;;;;;16.55;3.35;;;;;;;-146.27;69.04;80990.31;5036321;28;20033;-69
2023/09/28 08:26:21;;;;;;;26.23;4.45;;;;;;;-146.27;68.89;81010.41;5029574;28;20029;-70
2023/09/28 08:28:46;;;;;;;27.20;3.78;;;;;;;-146.27;68.46;81014.41;5019226;28;20112;-70
2023/09/28 08:31:12;;;;;;;32.63;3.65;;;;;;;-146.27;68.08;80986.31;5026610;28;20038;-70
2023/09/28 08:33:37;;;;;;;28.73;4.78;;;;;;;-146.27;68.63;81032.50;5030411;28;20032;-70
2023/09/28 08:36:06;;;;;;;25.70;3.70;;;;;;;-146.27;69.00;81026.47;5030315;28;20029;-69
2023/09/28 08:38:32;;;;;;;34.63;5.07;;;;;;;-146.27;70.01;81167.03;5034949;28;20450;-70
2023/09/28 08:41:02;;;;;;;23.80;3.78;;;;;;;-146.27;69.45;81046.53;5032324;28;20029;-69
2023/09/28 08:43:39;;;;;;;31.73;5.78;;;;;;;-146.27;69.08;81080.69;5041813;28;20116;-69
2023/09/28 08:46:09;;;;;;;21.45;3.97;;;;;;;-146.27;68.27;80954.19;5034760;28;20539;-71
2023/09/28 08:48:39;;;;;;;27.48;4.40;;;;;;;-146.27;68.99;81092.72;5030446;28;20100;-71
2023/09/28 08:51:09;;;;;;;28.80;4.45;;;;;;;-146.27;69.13;81074.66;5028663;28;20104;-70
2023/09/28 08:53:40;;;;;;;27.10;4.45;;;;;;;-146.27;68.71;81022.44;5035965;28;20033;-69
2023/09/28 08:56:06;;;;;;;22.17;4.28;;;;;;;-146.27;68.99;81080.69;5015256;28;20487;-69
2023/09/28 08:58:41;;;;;;;34.20;5.25;;;;;;;-146.27;69.29;81038.50;5028246;28;20491;-70
2023/09/28 09:01:07;;;;;;;29.02;4.00;;;;;;;-146.27;69.52;81088.72;5034819;28;20039;-69
2023/09/28 09:03:35;;;;;;;30.02;4.18;;;;;;;-146.27;69.93;81130.88;5037843;28;20441;-69
2023/09/28 09:06:04;;;;;;;23.40;3.28;;;;;;;-146.27;69.13;81034.50;5034693;28;20029;-69
2023/09/28 09:08:34;;;;;;;28.63;3.97;;;;;;;-146.27;67.77;80938.09;5032185;28;20610;-70
2023/09/28 09:11:00;;;;;;;28.95;4.05;;;;;;;-146.27;69.81;81134.91;5033067;28;20036;-70
2023/09/28 09:13:26;;;;;;;29.90;4.78;;;;;;;-146.27;69.23;81136.91;5035721;28;20119;-69
2023/09/28 09:15:52;;;;;;;24.50;3.92;;;;;;;-146.27;68.51;81006.38;5046961;28;20040;-70
2023/09/28 09:18:24;;;;;;;30.30;4.18;;;;;;;-146.27;68.52;80990.31;5033014;28;20048;-70
2023/09/28 09:20:57;;;;;;;33.95;4.70;;;;;;;-146.27;68.48;81028.47;5027378;28;20639;-70
2023/09/28 09:23:24;;;;;;;27.83;4.25;;;;;;;-146.27;68.88;81173.06;5022300;28;20105;-69
2023/09/28 09:25:56;;;;;;;38.65;4.25;;;;;;;-146.27;68.71;81046.53;5027208;28;20425;-69
2023/09/28 09:28:29;;;;;;;24.23;3.72;;;;;;;-146.27;68.61;81066.63;5031116;28;20660;-69
2023/09/28 09:30:56;;;;;;;22.45;3.60;;;;;;;-146.27;68.32;81064.63;5030383;28;20391;-68
2023/09/28 09:33:22;;;;;;;28.75;3.47;;;;;;;-146.27;68.27;80958.19;5022056;28;20026;-69
2023/09/28 09:35:49;;;;;;;34.97;4.70;;;;;;;-146.27;68.17;81016.44;5028298;28;20037;-68
2023/09/28 09:38:15;;;;;;;23.23;4.43;;;;;;;-146.27;68.64;81094.75;5033744;28;20020;-70
2023/09/28 09:40:40;;;;;;;21.65;4.45;;;;;;;-146.27;68.22;81000.34;5026399;28;20516;-69
2023/09/28 09:43:07;;;;;;;29.85;4.43;;;;;;;-146.27;68.33;81014.41;5032104;28;20117;-69
2023/09/28 09:45:36;;;;;;;23.63;3.67;;;;;;;-146.27;67.62;80926.06;5038880;28;20178;-70
2023/09/28 09:48:02;;;;;;;26.45;3.67;;;;;;;-146.27;67.26;80897.94;5046153;28;20032;-70
2023/09/28 09:50:31;;;;;;;30.15;4.05;;;;;;;-146.27;67.03;80928.06;5026665;28;20397;-70
2023/09/28 09:53:00;;;;;;;27.52;3.83;;;;;;;-146.27;67.61;80962.22;5033203;28;20052;-70
2023/09/28 09:55:25;;;;;;;32.63;3.92;;;;;;;-146.27;66.90;80893.94;5043653;28;20020;-71
2023/09/28 09:57:59;;;;;;;18.48;3.22;;;;;;;-146.27;65.97;80737.31;5030695;28;20112;-70
2023/09/28 10:00:31;;;;;;;29.77;4.00;;;;;;;-146.27;65.84;80813.59;5021356;28;20034;-69
2023/09/28 10:02:58;;;;;;;22.48;3.53;;;;;;;-146.27;65.52;80769.44;5028863;28;20033;-71
2023/09/28 10:05:27;;;;;;;31.63;5.00;;;;;;;-146.27;65.15;80835.69;5025491;28;20082;-70
2023/09/28 10:07:54;;;;;;;26.48;3.85;;;;;;;-146.27;65.05;80781.47;5029876;28;20033;-70
2023/09/28 10:10:20;;;;;;;27.08;3.63;;;;;;;-146.27;65.83;80819.63;5034529;28;20025;-70
2023/09/28 10:12:47;;;;;;;27.85;3.70;;;;;;;-146.27;65.84;80861.81;5022463;28;20104;-72
2023/09/28 10:15:14;;;;;;;23.20;4.05;;;;;;;-146.27;65.90;80857.78;5040258;28;20044;-71
2023/09/28 10:17:40;;;;;;;23.02;3.35;;;;;;;-146.27;65.16;80751.38;5029919;28;20056;-71
2023/09/28 10:20:07;;;;;;;30.30;4.30;;;;;;;-146.27;65.31;80787.50;5041530;28;20043;-71
2023/09/28 10:22:32;;;;;;;19.80;3.10;;;;;;;-146.27;64.85;80713.22;5025222;28;20036;-70
2023/09/28 10:24:57;;;;;;;23.42;3.83;;;;;;;-146.27;64.62;80751.38;5036294;28;20481;-71
2023/09/28 10:27:23;;;;;;;26.63;4.47;;;;;;;-146.27;65.07;80753.38;5028550;28;20029;-72
2023/09/28 10:29:49;;;;;;;33.28;3.95;;;;;;;-146.27;65.80;80829.69;5014796;28;20439;-72
2023/09/28 10:32:30;;;;;;;20.98;3.45;;;;;;;-146.27;65.51;80799.56;5024300;28;20024;-72
2023/09/28 10:35:20;;;;;;;30.42;4.40;;;;;;;-146.27;64.26;80632.91;5020271;28;20555;-72
2023/09/28 10:38:21;;;;;;;19.63;4.22;;;;;;;-146.27;65.66;80801.56;5045711;28;20060;-71
2023/09/28 10:40:59;;;;;;;19.88;4.05;;;;;;;-146.27;65.75;80793.53;5033654;28;20099;-72
2023/09/28 10:43:39;;;;;;;28.58;3.97;;;;;;;-146.27;66.03;80797.53;5027351;28;20053;-72
2023/09/28 10:46:06;;;;;;;26.70;5.07;;;;;;;-146.27;66.25;80853.78;5018968;28;20568;-71
2023/09/28 10:48:40;;;;;;;19.98;3.38;;;;;;;-146.27;65.81;80801.56;5035715;28;20155;-71
2023/09/28 10:51:16;;;;;;;25.58;4.20;;;;;;;-146.27;64.92;80673.06;5033426;28;20049;-71
2023/09/28 10:53:43;;;;;;;25.63;3.95;;;;;;;-146.27;66.63;80938.09;5045826;28;20106;-71
2023/09/28 10:56:10;;;;;;;28.95;4.25;;;;;;;-146.27;65.90;80759.41;5021618;28;20392;-71
2023/09/28 10:58:37;;;;;;;25.00;4.22;;;;;;;-146.27;65.79;80877.88;5040751;28;20032;-70
2023/09/28 11:01:06;;;;;;;21.00;4.00;;;;;;;-146.27;66.78;80901.97;5041619;28;20386;-71
2023/09/28 11:03:36;;;;;;;24.70;3.72;;;;;;;-146.27;66.14;80841.72;5037816;28;20025;-71
2023/09/28 11:06:05;;;;;;;29.42;3.75;;;;;;;-146.27;65.65;80859.78;5016838;28;20469;-71
2023/09/28 11:08:32;;;;;;;23.85;4.78;;;;;;;-146.27;65.97;80887.91;5031494;28;20518;-71
2023/09/28 11:11:01;;;;;;;19.75;3.80;;;;;;;-146.27;66.68;80926.06;5030870;28;20059;-71
2023/09/28 11:13:26;;;;;;;31.02;4.30;;;;;;;-146.27;65.91;80847.75;5047154;28;20523;-71
2023/09/28 11:15:53;;;;;;;18.02;3.60;;;;;;;-146.27;66.25;80873.84;5028210;28;20056;-72